Aeroporto :
LOGIN :

Iscrizione | Disclaimer

   EN    FR    IT 

 










Sommario :    VFR   VFR Marginale   IFR   IFR Intensivo   IFR Molto Intensivo
Visibilità : 
Base nubi : 
>= 8 km
>= 3000ft
5 / 8 km
1000 / 3000 ft
1500m / 5 km
500 / 1000 ft
800 / 1500m
200 / 500 ft
< 800m
< 200 ft
Simboli :   Temporali  Nebbia  Neve Forte  Precipitazioni Forti  Vento > 20 kt
SIGMETs :   Varie  Temporali  Ghiacco  Turbolenza  Onda orograficha  Ceneri Vulcaniche







- Altitudine del aeroporto : 1470 ft
- Codice IATA : KLU


LOWK - Klagenfurt

ULTIMO METAR :
  • 180720Z VRB02KT CAVOK 20/15 Q1017 NOSIG

METARs OBSOLETI :
  • 180650Z VRB01KT CAVOK 20/15 Q1017 NOSIG
  • 180620Z 32003KT CAVOK 19/15 Q1017 NOSIG
  • 180550Z VRB02KT CAVOK 17/15 Q1017 NOSIG
  • 180520Z 30003KT CAVOK 16/14 Q1017 NOSIG
  • 180450Z 30004KT CAVOK 16/14 Q1016 NOSIG

TAF TAF LOWK
Valido dal 18 a 06 ore il 19 a 06 ore UTC


180515Z 1806/1906 VRB02KT CAVOK TX29/1815Z TN16/1904Z
TEMPO 1809/1817 12007KT 9999 FEW060 SCT300
Nessun NOTAM noto per questo aeroporto.



MetMap, La meteo Aeronautica in un colpo d'occhio ! - Copyright ORBIFLY Dicembre 2007 - Disclaimer

ORBIFLY MET'MAP TEAM :

Programmazione e sviluppo : Alexandra Zaïnal
Concezione e sviluppo : Baudouin d'Aumeries
Co-Programmazione e sviluppo : Marc-Olivier Méhu
Supporto tecnico e logistico : Manuel Goepfert
Aiuto per la traduzione : Arnaldo La Scala

Contatto : metmap@orbifly.com




FONTI E CREDITI :

   NOAA